Time;durP1;ratioP1;P1;durP2;ratioP2;P2;SDS_P1;SDS_P2;PMS_P1;PMS_P2;Temp;Humidity;BMP_temperature;BMP_pressure;BME280_temperature;BME280_humidity;BME280_pressure;Samples;Min_cycle;Max_cycle;Signal;HPM_P1;HPM_P2
2022/11/04 00:01:38;;;;;;;16.93;10.20;;;9.70;99.90;;;;;;5051389;28;20215;-66
2022/11/04 00:04:05;;;;;;;20.33;10.07;;;9.80;99.90;;;;;;5042632;28;20194;-65
2022/11/04 00:06:33;;;;;;;19.63;10.23;;;9.80;99.90;;;;;;5051320;28;20202;-65
2022/11/04 00:09:00;;;;;;;20.23;10.07;;;9.80;99.90;;;;;;5053666;28;20579;-66
2022/11/04 00:14:12;;;;;;;15.47;9.83;;;9.80;99.90;;;;;;5042163;28;20224;-67
2022/11/04 00:30:57;;;;;;;20.90;11.27;;;9.80;99.90;;;;;;4951254;29;20260;-64
2022/11/04 00:33:26;;;;;;;20.33;10.20;;;9.70;99.90;;;;;;4988311;28;20747;-67
2022/11/04 00:35:55;;;;;;;20.30;9.83;;;9.70;99.90;;;;;;5003593;28;20586;-65
2022/11/04 00:38:23;;;;;;;17.20;10.43;;;9.70;99.90;;;;;;4997973;28;20231;-66
2022/11/04 00:40:50;;;;;;;18.03;9.83;;;9.70;99.90;;;;;;5007013;28;20207;-64
2022/11/04 00:43:17;;;;;;;15.57;9.50;;;9.70;99.90;;;;;;5010605;28;20203;-66
2022/11/04 00:45:44;;;;;;;19.23;9.97;;;9.70;99.90;;;;;;5009800;28;20203;-65
2022/11/04 00:48:11;;;;;;;18.40;9.87;;;9.80;99.90;;;;;;5010704;28;20216;-66
2022/11/04 00:50:38;;;;;;;22.53;10.10;;;9.70;99.90;;;;;;5030615;28;20205;-65
2022/11/04 00:53:05;;;;;;;18.50;10.03;;;9.80;99.90;;;;;;5052860;28;20228;-66
2022/11/04 00:55:33;;;;;;;18.33;9.83;;;9.70;99.90;;;;;;5052703;28;20205;-67
2022/11/04 00:58:00;;;;;;;19.37;9.83;;;9.70;99.90;;;;;;5053072;28;20667;-65
2022/11/04 01:00:27;;;;;;;16.80;9.77;;;9.70;99.90;;;;;;5045616;28;20736;-66
2022/11/04 01:02:54;;;;;;;16.57;8.93;;;9.70;99.90;;;;;;5052607;28;20208;-67
2022/11/04 01:05:21;;;;;;;17.10;9.90;;;9.70;99.90;;;;;;5049438;28;21202;-66
2022/11/04 01:07:47;;;;;;;16.40;9.73;;;9.70;99.90;;;;;;5051349;28;20543;-66
2022/11/04 01:10:14;;;;;;;17.17;10.10;;;9.70;99.90;;;;;;5051517;28;20324;-67
2022/11/04 01:12:42;;;;;;;19.97;10.47;;;9.70;99.90;;;;;;5052189;28;20215;-65
2022/11/04 01:15:10;;;;;;;16.80;9.73;;;9.70;99.90;;;;;;5052496;28;20571;-66
2022/11/04 01:17:37;;;;;;;16.97;9.87;;;9.70;99.90;;;;;;5052111;28;20208;-66
2022/11/04 01:20:04;;;;;;;17.50;9.67;;;9.70;99.90;;;;;;5050069;28;20206;-66
2022/11/04 01:22:31;;;;;;;14.13;9.27;;;9.70;99.90;;;;;;5052070;28;20211;-65
2022/11/04 01:24:57;;;;;;;16.93;9.57;;;9.70;99.90;;;;;;5047700;28;20200;-67
2022/11/04 01:27:24;;;;;;;18.73;9.50;;;9.70;99.90;;;;;;5037088;28;20202;-65
2022/11/04 01:29:52;;;;;;;16.47;9.30;;;9.70;99.90;;;;;;5034108;28;20208;-66
2022/11/04 01:32:19;;;;;;;12.77;9.27;;;9.70;99.90;;;;;;5052157;28;20667;-66
2022/11/04 01:34:46;;;;;;;17.93;9.07;;;9.80;99.90;;;;;;5044866;28;20822;-67
2022/11/04 01:37:13;;;;;;;16.20;8.97;;;9.80;99.90;;;;;;5020395;28;20607;-66
2022/11/04 01:39:40;;;;;;;19.47;9.73;;;9.80;99.90;;;;;;5022017;28;20213;-67
2022/11/04 01:42:10;;;;;;;16.73;8.87;;;9.80;99.90;;;;;;5023102;28;20567;-66
2022/11/04 01:44:50;;;;;;;19.03;9.13;;;9.80;99.90;;;;;;5019628;28;20194;-67
2022/11/04 01:47:21;;;;;;;13.50;8.63;;;9.80;99.90;;;;;;5022560;28;20197;-67
2022/11/04 01:49:52;;;;;;;14.10;8.33;;;9.80;99.90;;;;;;5014174;28;20209;-67
2022/11/04 01:52:26;;;;;;;15.93;8.37;;;9.70;99.90;;;;;;5050433;28;20260;-66
2022/11/04 01:54:55;;;;;;;14.33;8.77;;;9.70;99.90;;;;;;5051712;28;20213;-66
2022/11/04 01:57:27;;;;;;;17.13;8.40;;;9.70;99.90;;;;;;5051179;28;20538;-66
2022/11/04 01:59:54;;;;;;;17.77;8.73;;;9.70;99.90;;;;;;5049753;28;20674;-65
2022/11/04 02:02:23;;;;;;;13.83;8.03;;;9.70;99.90;;;;;;5051174;28;20595;-65
2022/11/04 02:04:50;;;;;;;14.70;8.00;;;9.70;99.90;;;;;;5051315;28;20272;-64
2022/11/04 02:07:17;;;;;;;17.80;8.63;;;9.80;99.90;;;;;;5051193;28;20211;-64
2022/11/04 02:09:44;;;;;;;19.30;8.97;;;9.70;99.90;;;;;;5049808;28;20209;-65
2022/11/04 02:14:57;;;;;;;17.00;8.10;;;9.70;99.90;;;;;;5051035;28;20233;-66
2022/11/04 02:17:39;;;;;;;15.60;8.03;;;9.80;99.90;;;;;;5050965;28;20213;-65
2022/11/04 02:20:23;;;;;;;13.57;8.10;;;9.70;99.90;;;;;;5049064;28;20201;-67
2022/11/04 02:23:21;;;;;;;16.20;8.27;;;9.70;99.90;;;;;;5049497;28;20190;-66
2022/11/04 02:26:07;;;;;;;16.67;7.67;;;9.70;99.90;;;;;;5038024;28;20205;-67
2022/11/04 02:29:04;;;;;;;13.80;8.10;;;9.70;99.90;;;;;;5050690;28;20567;-66
2022/11/04 02:31:40;;;;;;;14.80;8.60;;;9.80;99.90;;;;;;5051006;28;20635;-67
2022/11/04 02:34:13;;;;;;;14.93;8.23;;;9.80;99.90;;;;;;5043386;28;20233;-66
2022/11/04 02:36:46;;;;;;;14.57;7.90;;;9.80;99.90;;;;;;5050826;28;20208;-66
2022/11/04 02:39:23;;;;;;;12.53;7.90;;;9.70;99.90;;;;;;5050703;28;20204;-66
2022/11/04 02:41:56;;;;;;;13.57;8.03;;;9.80;99.90;;;;;;5050780;28;20189;-65
2022/11/04 02:44:31;;;;;;;18.17;7.97;;;9.80;99.90;;;;;;5047443;28;20202;-65
2022/11/04 02:47:03;;;;;;;18.40;7.33;;;9.80;99.90;;;;;;5051099;28;20200;-65
2022/11/04 02:49:35;;;;;;;15.40;8.10;;;9.80;99.90;;;;;;5047817;28;20212;-64
2022/11/04 02:52:06;;;;;;;13.00;7.73;;;9.80;99.90;;;;;;5050821;28;20190;-65
2022/11/04 02:54:38;;;;;;;12.20;8.27;;;9.80;99.90;;;;;;5050600;28;20225;-65
2022/11/04 02:57:10;;;;;;;13.20;7.70;;;9.80;99.90;;;;;;5050842;28;20208;-65
2022/11/04 02:59:41;;;;;;;15.30;8.00;;;9.80;99.90;;;;;;5045382;28;20198;-65
2022/11/04 03:02:14;;;;;;;16.03;7.90;;;9.80;99.90;;;;;;5050504;28;20204;-66
2022/11/04 03:04:45;;;;;;;15.73;8.70;;;9.80;99.90;;;;;;5051003;28;20197;-65
2022/11/04 03:07:15;;;;;;;13.83;8.17;;;9.80;99.90;;;;;;5048015;28;20202;-65
2022/11/04 03:09:47;;;;;;;13.30;7.80;;;9.70;99.90;;;;;;5052026;28;20603;-66
2022/11/04 03:12:17;;;;;;;15.47;7.87;;;9.80;99.90;;;;;;5053923;28;20190;-64
2022/11/04 03:14:49;;;;;;;14.20;7.90;;;9.80;99.90;;;;;;5054369;28;20552;-65
2022/11/04 03:17:22;;;;;;;14.37;8.40;;;9.70;99.90;;;;;;5051135;28;20255;-65
2022/11/04 03:19:56;;;;;;;13.87;7.87;;;9.70;99.90;;;;;;5054892;28;20204;-67
2022/11/04 03:22:26;;;;;;;17.20;8.47;;;9.70;99.90;;;;;;5054306;28;20190;-67
2022/11/04 03:24:53;;;;;;;15.90;8.27;;;9.70;99.90;;;;;;5053905;28;20296;-66
2022/11/04 03:27:24;;;;;;;12.67;8.27;;;9.80;99.90;;;;;;5039601;28;20640;-67
2022/11/04 03:29:57;;;;;;;15.70;7.80;;;9.70;99.90;;;;;;5033991;28;20194;-67
2022/11/04 03:32:36;;;;;;;13.03;7.47;;;9.70;99.90;;;;;;5046572;28;20206;-66
2022/11/04 03:35:04;;;;;;;14.63;7.90;;;9.70;99.90;;;;;;5053943;28;20237;-67
2022/11/04 03:37:31;;;;;;;10.53;7.27;;;9.70;99.90;;;;;;5052362;28;20212;-66
2022/11/04 03:39:58;;;;;;;14.57;8.07;;;9.70;99.90;;;;;;5049866;28;20557;-66
2022/11/04 03:42:26;;;;;;;12.90;8.07;;;9.70;99.90;;;;;;5053752;28;20668;-66
2022/11/04 03:44:55;;;;;;;13.73;7.93;;;9.70;99.90;;;;;;5054103;28;20204;-66
2022/11/04 03:47:24;;;;;;;15.37;8.10;;;9.70;99.90;;;;;;5053836;28;20205;-67
2022/11/04 03:49:57;;;;;;;13.73;8.03;;;9.70;99.90;;;;;;5052218;28;20210;-67
2022/11/04 03:52:24;;;;;;;17.97;8.43;;;9.60;99.90;;;;;;5053485;28;20193;-66
2022/11/04 03:54:51;;;;;;;11.83;7.60;;;9.60;99.90;;;;;;5054231;28;20232;-67
2022/11/04 03:57:34;;;;;;;16.93;8.30;;;9.60;99.90;;;;;;5050141;28;20201;-66
2022/11/04 04:00:09;;;;;;;17.87;8.87;;;9.60;99.90;;;;;;5048803;28;20212;-66
2022/11/04 04:02:46;;;;;;;13.73;8.37;;;9.60;99.90;;;;;;5013945;28;20299;-67
2022/11/04 04:05:22;;;;;;;18.93;8.27;;;9.60;99.90;;;;;;5013608;28;20187;-66
2022/11/04 04:07:54;;;;;;;14.53;7.97;;;9.60;99.90;;;;;;5014184;28;20226;-66
2022/11/04 04:10:39;;;;;;;13.87;8.10;;;9.60;99.90;;;;;;5023345;28;20207;-67
2022/11/04 04:13:14;;;;;;;15.70;8.87;;;9.60;99.90;;;;;;5013459;28;20563;-67
2022/11/04 04:15:46;;;;;;;13.97;8.40;;;9.60;99.90;;;;;;5013694;28;20221;-66
2022/11/04 04:18:16;;;;;;;17.23;9.23;;;9.50;99.90;;;;;;5013394;28;20198;-67
2022/11/04 04:20:47;;;;;;;14.87;8.67;;;9.50;99.90;;;;;;5029683;28;20206;-67
2022/11/04 04:28:51;;;;;;;14.37;7.87;;;9.50;99.90;;;;;;5053050;28;20653;-67
2022/11/04 04:34:01;;;;;;;14.77;9.07;;;9.50;99.90;;;;;;5052257;28;20237;-68
2022/11/04 04:36:31;;;;;;;16.97;9.47;;;9.50;99.90;;;;;;5053090;28;20209;-67
2022/11/04 04:47:22;;;;;;;13.33;8.10;;;9.50;99.90;;;;;;5052562;28;20356;-67
2022/11/04 04:49:52;;;;;;;14.03;8.63;;;9.50;99.90;;;;;;5052822;28;20204;-68
2022/11/04 04:52:22;;;;;;;16.93;8.47;;;9.50;99.90;;;;;;5047793;28;20288;-67
2022/11/04 04:54:48;;;;;;;15.60;8.97;;;9.60;99.90;;;;;;5052853;28;20225;-67
2022/11/04 04:57:15;;;;;;;14.60;9.97;;;9.60;99.90;;;;;;5052557;28;20211;-66
2022/11/04 04:59:42;;;;;;;17.60;10.97;;;9.60;99.90;;;;;;5052679;28;20741;-67
2022/11/04 05:02:09;;;;;;;14.50;9.13;;;9.60;99.90;;;;;;5050520;28;20288;-67
2022/11/04 05:04:36;;;;;;;17.53;8.80;;;9.60;99.90;;;;;;5051960;28;20198;-66
2022/11/04 05:07:02;;;;;;;15.57;8.73;;;9.60;99.90;;;;;;5052085;28;20216;-67
2022/11/04 05:09:30;;;;;;;14.53;9.17;;;9.70;99.90;;;;;;5052431;28;20671;-66
2022/11/04 05:11:58;;;;;;;14.27;9.07;;;9.70;99.90;;;;;;5050479;28;20301;-67
2022/11/04 05:14:25;;;;;;;17.87;9.90;;;9.70;99.90;;;;;;5052133;28;20282;-67
2022/11/04 05:16:51;;;;;;;16.63;8.60;;;9.70;99.90;;;;;;5052008;28;20201;-66
2022/11/04 05:19:18;;;;;;;17.57;9.77;;;9.70;99.90;;;;;;5052316;28;20689;-67
2022/11/04 05:21:45;;;;;;;18.10;9.47;;;9.70;99.90;;;;;;5050707;28;20266;-66
2022/11/04 05:24:12;;;;;;;16.23;9.80;;;9.70;99.90;;;;;;5052005;28;20204;-66
2022/11/04 05:26:40;;;;;;;14.60;9.20;;;9.60;99.90;;;;;;5052186;28;20594;-67
2022/11/04 05:29:07;;;;;;;17.77;10.37;;;9.60;99.90;;;;;;5047267;28;20282;-67
2022/11/04 05:31:34;;;;;;;17.37;10.10;;;9.60;99.90;;;;;;5051768;28;20212;-67
2022/11/04 05:34:00;;;;;;;21.43;9.90;;;9.60;99.90;;;;;;5050897;28;20327;-69
2022/11/04 05:36:27;;;;;;;16.33;9.33;;;9.50;99.90;;;;;;5052159;28;20694;-66
2022/11/04 05:38:55;;;;;;;14.40;9.13;;;9.50;99.90;;;;;;5046001;28;20652;-68
2022/11/04 05:41:25;;;;;;;17.07;9.87;;;9.50;99.90;;;;;;5021104;28;20574;-67
2022/11/04 05:43:54;;;;;;;17.40;9.90;;;9.50;99.90;;;;;;5021819;28;20190;-67
2022/11/04 05:46:21;;;;;;;19.53;10.80;;;9.50;99.90;;;;;;5020766;28;20218;-66
2022/11/04 05:48:48;;;;;;;18.17;9.80;;;9.50;99.90;;;;;;5022792;28;20205;-68
2022/11/04 05:51:15;;;;;;;21.77;11.33;;;9.50;99.90;;;;;;5032171;28;20236;-67
2022/11/04 05:53:42;;;;;;;15.97;9.67;;;9.50;99.90;;;;;;5031915;28;20206;-69
2022/11/04 05:56:09;;;;;;;17.73;9.73;;;9.50;99.90;;;;;;5027635;28;20583;-66
2022/11/04 05:58:36;;;;;;;17.40;9.80;;;9.50;99.90;;;;;;5021245;28;20202;-67
2022/11/04 06:01:24;;;;;;;17.00;9.50;;;9.50;99.90;;;;;;5023513;28;20234;-67
2022/11/04 06:03:51;;;;;;;17.83;10.07;;;9.50;99.90;;;;;;5022117;28;20208;-66
2022/11/04 06:06:18;;;;;;;16.93;10.40;;;9.50;99.90;;;;;;5020961;28;20233;-66
2022/11/04 06:08:45;;;;;;;19.83;10.77;;;9.50;99.90;;;;;;5022958;28;20202;-67
2022/11/04 06:11:12;;;;;;;15.53;9.40;;;9.50;99.90;;;;;;5020080;28;20627;-67
2022/11/04 06:13:39;;;;;;;13.97;9.37;;;9.60;99.90;;;;;;5020350;28;20200;-68
2022/11/04 06:16:06;;;;;;;16.37;9.60;;;9.50;99.90;;;;;;5021534;28;20220;-67
2022/11/04 06:18:34;;;;;;;17.23;9.20;;;9.60;99.90;;;;;;5023492;28;20230;-68
2022/11/04 06:21:21;;;;;;;14.20;8.97;;;9.60;99.90;;;;;;5020098;28;20201;-68
2022/11/04 06:23:48;;;;;;;14.70;9.20;;;9.60;99.90;;;;;;5022156;28;20201;-67
2022/11/04 06:26:16;;;;;;;17.27;10.70;;;9.60;99.90;;;;;;5020674;28;20288;-67
2022/11/04 06:28:42;;;;;;;20.90;10.73;;;9.60;99.90;;;;;;5021632;28;20198;-68
2022/11/04 06:31:11;;;;;;;18.20;10.73;;;9.70;99.90;;;;;;5020400;28;20194;-66
2022/11/04 06:33:40;;;;;;;19.53;11.23;;;9.60;99.90;;;;;;5023926;28;20260;-68
2022/11/04 06:36:09;;;;;;;18.83;10.10;;;9.70;99.90;;;;;;5025541;28;20593;-68
2022/11/04 06:38:37;;;;;;;14.00;9.97;;;9.70;99.90;;;;;;5024597;28;20596;-69
2022/11/04 06:41:04;;;;;;;20.47;9.33;;;9.70;99.90;;;;;;5027695;28;20297;-68
2022/11/04 06:43:31;;;;;;;15.57;9.73;;;9.70;99.90;;;;;;5030178;28;20248;-67
2022/11/04 06:45:59;;;;;;;16.30;9.37;;;9.70;99.90;;;;;;5034814;28;20381;-67
2022/11/04 06:48:28;;;;;;;15.13;9.33;;;9.80;99.90;;;;;;5026847;28;20321;-67
2022/11/04 06:50:57;;;;;;;14.20;9.17;;;9.80;99.90;;;;;;5035560;28;20214;-68
2022/11/04 06:53:24;;;;;;;16.67;9.43;;;9.90;99.90;;;;;;5045204;28;20694;-69
2022/11/04 11:25:30;;;;;;;19.83;10.83;;;10.90;99.90;;;;;;5109316;27;20557;-68
2022/11/04 11:28:00;;;;;;;15.37;10.47;;;11.00;99.90;;;;;;5109852;28;20207;-69
2022/11/04 11:30:30;;;;;;;19.90;12.00;;;11.00;99.90;;;;;;5109577;28;20209;-68
2022/11/04 11:33:03;;;;;;;18.70;10.70;;;11.00;99.90;;;;;;5109796;28;20192;-68
2022/11/04 11:35:40;;;;;;;15.47;10.37;;;11.00;99.90;;;;;;5109730;28;20631;-67
2022/11/04 11:38:20;;;;;;;22.17;11.53;;;11.10;99.90;;;;;;5109517;28;20198;-71
2022/11/04 11:40:51;;;;;;;19.60;10.60;;;11.10;99.90;;;;;;5109881;28;20194;-70
2022/11/04 11:43:24;;;;;;;17.17;11.03;;;11.10;99.90;;;;;;5109701;28;20276;-69
2022/11/04 11:45:53;;;;;;;16.07;10.83;;;11.10;99.90;;;;;;5109289;28;20188;-69
2022/11/04 11:48:31;;;;;;;17.27;10.60;;;11.00;99.90;;;;;;5109440;28;20237;-68
2022/11/04 11:50:59;;;;;;;18.03;10.13;;;11.00;99.90;;;;;;5109153;28;20203;-70
2022/11/04 11:53:28;;;;;;;14.17;10.00;;;11.00;99.90;;;;;;5109084;28;20323;-69
2022/11/04 11:56:05;;;;;;;13.87;10.03;;;10.90;99.90;;;;;;5108960;28;20368;-68
2022/11/04 11:58:38;;;;;;;15.77;10.63;;;10.90;99.90;;;;;;5109073;28;20274;-68
2022/11/04 12:01:12;;;;;;;15.27;9.70;;;11.00;99.90;;;;;;5109136;28;20214;-69
2022/11/04 12:03:43;;;;;;;14.43;10.30;;;11.00;99.90;;;;;;5109076;28;20552;-67
2022/11/04 12:06:23;;;;;;;15.87;9.77;;;11.00;99.90;;;;;;5108887;28;20203;-67
2022/11/04 12:09:12;;;;;;;13.17;9.17;;;10.90;99.90;;;;;;5109057;28;20188;-68
2022/11/04 12:11:52;;;;;;;15.93;9.20;;;10.80;99.90;;;;;;5109040;28;20203;-67
2022/11/04 12:14:26;;;;;;;17.13;10.23;;;10.70;99.90;;;;;;5105021;28;20570;-67
2022/11/04 12:17:03;;;;;;;17.80;9.83;;;10.70;99.90;;;;;;5088316;28;20192;-67
2022/11/04 12:19:47;;;;;;;13.80;10.00;;;10.60;99.90;;;;;;5099858;28;20205;-69
2022/11/04 12:22:21;;;;;;;16.63;10.97;;;10.70;99.90;;;;;;5090832;28;20578;-68
2022/11/04 12:24:55;;;;;;;15.23;10.10;;;10.60;99.90;;;;;;5088876;28;20247;-68
2022/11/04 12:27:32;;;;;;;16.20;10.77;;;10.60;99.90;;;;;;5104859;28;20199;-68
2022/11/04 12:30:06;;;;;;;17.93;10.40;;;10.50;99.90;;;;;;5109020;28;20197;-70
2022/11/04 12:32:48;;;;;;;16.73;11.13;;;10.40;99.90;;;;;;5090992;28;20204;-69
2022/11/04 12:35:32;;;;;;;14.27;9.60;;;10.50;99.90;;;;;;5082233;28;20212;-70
2022/11/04 12:38:15;;;;;;;15.27;9.40;;;10.50;99.90;;;;;;5083458;28;20199;-69
2022/11/04 12:40:49;;;;;;;15.17;9.20;;;10.60;99.90;;;;;;5082579;28;20628;-69
2022/11/04 12:43:24;;;;;;;15.70;9.10;;;10.60;99.90;;;;;;5078890;28;20195;-69
2022/11/04 12:46:02;;;;;;;16.87;9.30;;;10.60;99.90;;;;;;5095096;28;20199;-69
2022/11/04 12:48:49;;;;;;;16.63;10.33;;;10.70;99.90;;;;;;5094581;28;20209;-68
2022/11/04 12:51:26;;;;;;;15.40;9.43;;;10.60;99.90;;;;;;5095033;28;20217;-68
2022/11/04 12:54:13;;;;;;;18.10;10.70;;;10.60;99.90;;;;;;5094890;28;20663;-69
2022/11/04 12:56:40;;;;;;;17.53;10.13;;;10.60;99.90;;;;;;5073294;28;20209;-68
2022/11/04 12:59:41;;;;;;;12.83;9.00;;;10.60;99.90;;;;;;5094417;28;20203;-69
2022/11/04 13:02:16;;;;;;;14.60;10.27;;;10.60;99.90;;;;;;5086957;28;20223;-69
2022/11/04 13:04:50;;;;;;;14.73;10.53;;;10.60;99.90;;;;;;5091227;28;20222;-69
2022/11/04 13:07:20;;;;;;;13.40;9.20;;;10.60;99.90;;;;;;5092036;28;20192;-68
2022/11/04 13:09:52;;;;;;;15.97;9.93;;;10.60;99.90;;;;;;5077180;28;20557;-68
2022/11/04 13:12:22;;;;;;;14.97;10.13;;;10.60;99.90;;;;;;5093121;28;20208;-68
2022/11/04 13:14:54;;;;;;;15.13;9.23;;;10.60;99.90;;;;;;5094172;28;20246;-69
2022/11/04 13:17:26;;;;;;;12.80;9.47;;;10.60;99.90;;;;;;5093291;28;20204;-68
2022/11/04 13:19:56;;;;;;;15.40;10.97;;;10.60;99.90;;;;;;5093520;28;20228;-69
2022/11/04 13:22:26;;;;;;;17.47;10.97;;;10.60;99.90;;;;;;5091622;28;20204;-70
2022/11/04 13:24:58;;;;;;;15.67;10.47;;;10.50;99.90;;;;;;5092247;28;20231;-69
2022/11/04 13:27:30;;;;;;;17.57;10.53;;;10.60;99.90;;;;;;5093756;28;20211;-68
2022/11/04 13:30:06;;;;;;;14.33;10.30;;;10.50;99.90;;;;;;5091162;28;20203;-69
2022/11/04 13:32:40;;;;;;;15.07;10.20;;;10.50;99.90;;;;;;5080413;28;20196;-70
2022/11/04 13:35:15;;;;;;;17.00;11.03;;;10.50;99.90;;;;;;5092665;28;20215;-70
2022/11/04 13:37:52;;;;;;;16.47;10.30;;;10.50;99.90;;;;;;5094254;28;20192;-68
2022/11/04 13:40:24;;;;;;;16.20;10.20;;;10.50;99.90;;;;;;5082970;28;20196;-68
2022/11/04 13:46:19;;;;;;;14.17;9.90;;;10.50;99.90;;;;;;5045301;28;20196;-68
2022/11/04 13:48:58;;;;;;;15.57;9.60;;;10.50;99.90;;;;;;5073156;28;20211;-69
2022/11/04 13:51:35;;;;;;;18.77;9.57;;;10.60;99.90;;;;;;5078667;28;20265;-68
2022/11/04 13:54:03;;;;;;;13.70;9.57;;;10.50;99.90;;;;;;5093417;28;20212;-70
2022/11/04 13:56:33;;;;;;;17.40;10.50;;;10.50;99.90;;;;;;5092767;28;20226;-68
2022/11/04 13:59:18;;;;;;;16.90;10.57;;;10.50;99.90;;;;;;5093180;28;20235;-68
2022/11/04 14:01:46;;;;;;;16.47;9.57;;;10.50;99.90;;;;;;5093669;28;20554;-70
2022/11/04 14:04:29;;;;;;;15.60;10.23;;;10.50;99.90;;;;;;5093033;28;20559;-70
2022/11/04 14:06:59;;;;;;;15.90;9.90;;;10.50;99.90;;;;;;5091439;28;20212;-69
2022/11/04 14:09:50;;;;;;;16.73;9.57;;;10.50;99.90;;;;;;5087101;28;20204;-67
2022/11/04 14:12:34;;;;;;;17.23;11.13;;;10.40;99.90;;;;;;5093085;28;20198;-70
2022/11/04 14:15:12;;;;;;;16.90;9.97;;;10.40;99.90;;;;;;5092969;28;20223;-71
2022/11/04 14:18:03;;;;;;;19.80;10.43;;;10.40;99.90;;;;;;5093115;28;20224;-70
2022/11/04 14:20:35;;;;;;;18.07;10.40;;;10.40;99.90;;;;;;5088715;28;20671;-68
2022/11/04 14:23:07;;;;;;;17.10;9.43;;;10.30;99.90;;;;;;5073697;28;20277;-67
2022/11/04 14:25:37;;;;;;;18.50;11.20;;;10.30;99.90;;;;;;5073165;28;20284;-68
2022/11/04 14:28:19;;;;;;;17.87;10.57;;;10.30;99.90;;;;;;5073635;28;20196;-67
2022/11/04 14:30:51;;;;;;;17.67;10.17;;;10.20;99.90;;;;;;5087960;28;20203;-68
2022/11/04 14:33:39;;;;;;;15.53;9.50;;;10.20;99.90;;;;;;5092593;28;20200;-67
2022/11/04 14:36:25;;;;;;;18.47;11.20;;;10.30;99.90;;;;;;5092849;28;20204;-68
2022/11/04 14:38:54;;;;;;;14.83;10.23;;;10.30;99.90;;;;;;5092263;28;20199;-67
2022/11/04 14:41:29;;;;;;;19.03;12.03;;;10.30;99.90;;;;;;5090419;28;20200;-67
2022/11/04 14:44:01;;;;;;;19.03;12.07;;;10.30;99.90;;;;;;5091238;28;20207;-68
2022/11/04 14:46:33;;;;;;;19.93;10.87;;;10.30;99.90;;;;;;5092934;28;20220;-69
2022/11/04 14:49:03;;;;;;;18.67;11.73;;;10.20;99.90;;;;;;5092844;28;20664;-69
2022/11/04 14:51:32;;;;;;;22.07;11.40;;;10.20;99.90;;;;;;5089895;28;20291;-69
2022/11/04 14:54:05;;;;;;;17.60;11.53;;;10.20;99.90;;;;;;5089929;28;20203;-70
2022/11/04 14:56:32;;;;;;;19.50;11.23;;;10.20;99.90;;;;;;5090115;28;20200;-68
2022/11/04 14:59:01;;;;;;;18.63;11.83;;;10.20;99.90;;;;;;5090497;28;20196;-70
2022/11/04 15:01:32;;;;;;;21.93;12.00;;;10.20;99.90;;;;;;5088590;28;20200;-68
2022/11/04 15:04:08;;;;;;;18.13;11.83;;;10.10;99.90;;;;;;5075547;28;20629;-69
2022/11/04 15:06:35;;;;;;;15.77;10.47;;;10.10;99.90;;;;;;5090748;28;20531;-68
2022/11/04 15:09:01;;;;;;;18.53;11.43;;;10.10;99.90;;;;;;5084899;28;20211;-70
2022/11/04 15:14:19;;;;;;;16.63;10.77;;;10.10;99.90;;;;;;5083797;28;20227;-68
2022/11/04 15:16:49;;;;;;;17.30;10.83;;;10.10;99.90;;;;;;5089991;28;20218;-69
2022/11/04 15:19:27;;;;;;;19.07;12.43;;;10.10;99.90;;;;;;5090826;28;20294;-69
2022/11/04 15:21:54;;;;;;;19.90;11.97;;;10.10;99.90;;;;;;5090302;28;20199;-69
2022/11/04 15:24:22;;;;;;;21.33;12.27;;;10.00;99.90;;;;;;5091316;28;20232;-70
2022/11/04 15:26:53;;;;;;;19.20;11.07;;;10.00;99.90;;;;;;5091866;28;20236;-68
2022/11/04 15:29:22;;;;;;;24.57;12.90;;;10.00;99.90;;;;;;5091524;28;20561;-69
2022/11/04 15:31:55;;;;;;;17.77;11.93;;;10.00;99.90;;;;;;5081097;28;20200;-69
2022/11/04 15:34:24;;;;;;;18.63;12.77;;;10.00;99.90;;;;;;5092020;28;20223;-71
2022/11/04 15:36:51;;;;;;;18.13;12.63;;;10.00;99.90;;;;;;5090988;28;20569;-69
2022/11/04 15:39:22;;;;;;;19.57;12.23;;;10.00;99.90;;;;;;5091822;28;20270;-68
2022/11/04 18:43:44;;;;;;;20.97;14.17;;;8.30;99.90;;;;;;5147629;27;20510;-68
2022/11/04 18:46:12;;;;;;;21.03;13.93;;;9.20;99.90;;;;;;5147734;27;20465;-70
2022/11/04 18:58:47;;;;;;;23.50;14.70;;;9.40;99.90;;;;;;5084719;28;20546;-68
2022/11/04 19:01:17;;;;;;;21.33;14.80;;;9.40;99.90;;;;;;5085398;28;20561;-69
2022/11/04 19:03:44;;;;;;;23.50;15.17;;;9.40;99.90;;;;;;5088441;28;20553;-69
2022/11/04 19:06:15;;;;;;;23.80;15.43;;;9.40;99.90;;;;;;5087116;28;20222;-70
2022/11/04 19:08:42;;;;;;;25.33;15.30;;;9.40;99.90;;;;;;5090623;28;20193;-69
2022/11/04 19:11:14;;;;;;;23.30;15.70;;;9.40;99.90;;;;;;5085569;28;20322;-69
2022/11/04 19:13:41;;;;;;;20.73;15.27;;;9.40;99.90;;;;;;5089006;28;20662;-69
2022/11/04 19:16:11;;;;;;;24.40;16.43;;;9.50;99.90;;;;;;5089847;28;20238;-68
2022/11/04 19:18:38;;;;;;;21.23;15.13;;;9.50;99.90;;;;;;5093146;28;20196;-68
2022/11/04 19:21:08;;;;;;;22.27;15.13;;;9.50;99.90;;;;;;5084190;28;20207;-71
2022/11/04 19:23:35;;;;;;;21.20;13.87;;;9.50;99.90;;;;;;5068361;28;20217;-68
2022/11/04 19:26:06;;;;;;;24.87;14.73;;;9.50;99.90;;;;;;5068753;28;20231;-68
2022/11/04 19:28:32;;;;;;;25.23;15.20;;;9.50;99.90;;;;;;5075681;28;20339;-70
2022/11/04 19:31:00;;;;;;;20.10;13.97;;;9.40;99.90;;;;;;5085248;28;20570;-69
2022/11/04 19:33:29;;;;;;;23.47;14.17;;;9.50;99.90;;;;;;5067941;28;20211;-68
2022/11/04 19:35:56;;;;;;;22.63;14.93;;;9.50;99.90;;;;;;5068273;28;20690;-67
2022/11/04 19:38:23;;;;;;;21.13;15.03;;;9.40;99.90;;;;;;5064495;28;20244;-68
2022/11/04 19:40:51;;;;;;;20.37;13.83;;;9.40;99.90;;;;;;5072127;28;20204;-69
2022/11/04 19:43:17;;;;;;;25.47;15.30;;;9.40;99.90;;;;;;5058812;28;20240;-70
2022/11/04 19:45:45;;;;;;;26.10;16.63;;;9.40;99.90;;;;;;5054765;28;20193;-70
2022/11/04 19:48:13;;;;;;;26.33;16.00;;;9.40;99.90;;;;;;5054420;28;20201;-67
2022/11/04 19:50:43;;;;;;;22.30;15.17;;;9.40;99.90;;;;;;5054719;28;20328;-68
2022/11/04 19:53:10;;;;;;;21.67;14.37;;;9.40;99.90;;;;;;5061787;28;20220;-69
2022/11/04 19:55:37;;;;;;;26.50;15.97;;;9.40;99.90;;;;;;5074606;28;20212;-68
2022/11/04 19:58:04;;;;;;;21.10;14.47;;;9.40;99.90;;;;;;5072196;28;20200;-69
2022/11/04 20:00:32;;;;;;;19.50;13.80;;;9.40;99.90;;;;;;5059580;28;20666;-70
2022/11/04 20:02:59;;;;;;;24.47;14.50;;;9.40;99.90;;;;;;5076442;28;20642;-69
2022/11/04 20:05:26;;;;;;;24.67;14.90;;;9.30;99.90;;;;;;5086250;28;20208;-69
2022/11/04 20:07:54;;;;;;;18.63;12.90;;;9.30;99.90;;;;;;5066852;28;20256;-70
2022/11/04 20:10:22;;;;;;;20.50;13.80;;;9.30;99.90;;;;;;5073423;28;20573;-69
2022/11/04 20:15:35;;;;;;;20.93;14.43;;;9.30;99.90;;;;;;5061128;28;20219;-69
2022/11/04 20:18:01;;;;;;;20.10;13.20;;;9.30;99.90;;;;;;5058484;28;20197;-69
2022/11/04 20:20:29;;;;;;;21.23;14.20;;;9.30;99.90;;;;;;5085327;28;20287;-68
2022/11/04 20:22:57;;;;;;;21.67;13.77;;;9.30;99.90;;;;;;5093210;28;20302;-67
2022/11/04 20:25:23;;;;;;;20.90;13.50;;;9.30;99.90;;;;;;5088356;28;20296;-69
2022/11/04 20:27:50;;;;;;;18.03;12.83;;;9.30;99.90;;;;;;5072748;28;20225;-69
2022/11/04 20:30:17;;;;;;;22.20;13.30;;;9.20;99.90;;;;;;5073584;28;20204;-69
2022/11/04 20:32:44;;;;;;;23.57;16.00;;;9.20;99.90;;;;;;5073376;28;20593;-68
2022/11/04 20:35:11;;;;;;;23.20;15.27;;;9.20;99.90;;;;;;5073660;28;20207;-68
2022/11/04 20:37:38;;;;;;;23.23;14.87;;;9.20;99.90;;;;;;5072707;28;20199;-67
2022/11/04 20:40:08;;;;;;;22.93;15.07;;;9.20;99.90;;;;;;5084003;28;20219;-66
2022/11/04 20:42:34;;;;;;;23.53;14.73;;;9.20;99.90;;;;;;5072530;28;20236;-69
2022/11/04 20:45:01;;;;;;;22.33;14.60;;;9.20;99.90;;;;;;5073042;28;20585;-67
2022/11/04 20:47:29;;;;;;;24.60;15.40;;;9.20;99.90;;;;;;5073017;28;20224;-70
2022/11/04 20:49:56;;;;;;;23.77;14.80;;;9.20;99.90;;;;;;5072263;28;20600;-68
2022/11/04 20:52:22;;;;;;;21.93;13.90;;;9.20;99.90;;;;;;5073334;28;20560;-67
2022/11/04 20:54:49;;;;;;;24.47;14.53;;;9.20;99.90;;;;;;5073078;28;20200;-69
2022/11/04 20:57:17;;;;;;;27.40;16.13;;;9.20;99.90;;;;;;5072787;28;20203;-69
2022/11/04 20:59:44;;;;;;;20.93;13.60;;;9.20;99.90;;;;;;5071480;28;20676;-68
2022/11/04 21:02:12;;;;;;;23.23;15.13;;;9.20;99.90;;;;;;5071154;28;20296;-70
2022/11/04 21:04:38;;;;;;;25.17;16.70;;;9.10;99.90;;;;;;5069646;28;20208;-68
2022/11/04 21:07:05;;;;;;;32.53;21.43;;;9.20;99.90;;;;;;5070251;28;20236;-69
2022/11/04 21:09:32;;;;;;;30.23;20.37;;;9.20;99.90;;;;;;5072113;28;20208;-69
2022/11/04 21:11:59;;;;;;;30.17;19.40;;;9.10;99.90;;;;;;5072698;28;20207;-68
2022/11/04 21:14:29;;;;;;;30.10;20.37;;;9.00;99.90;;;;;;5085614;28;20210;-68
2022/11/04 21:16:56;;;;;;;43.30;25.70;;;9.00;99.90;;;;;;5093067;28;20242;-68
2022/11/04 21:19:22;;;;;;;39.87;25.50;;;9.00;99.90;;;;;;5077106;28;20200;-69
2022/11/04 21:21:49;;;;;;;36.50;23.47;;;8.80;99.90;;;;;;5058871;28;20201;-69
2022/11/04 21:24:16;;;;;;;32.87;21.60;;;8.80;99.90;;;;;;5070591;28;20567;-70